sensor_id;sensor_type;location;lat;lon;timestamp;temperature;humidity
25200;DHT22;33094;48.782;9.162;2022-08-05T00:40:52;25.60;91.10
25200;DHT22;33094;48.782;9.162;2022-08-05T00:43:18;25.50;91.00
25200;DHT22;33094;48.782;9.162;2022-08-05T00:45:44;25.40;91.10
25200;DHT22;33094;48.782;9.162;2022-08-05T00:48:10;25.40;91.00
25200;DHT22;33094;48.782;9.162;2022-08-05T00:50:37;25.50;91.00
25200;DHT22;33094;48.782;9.162;2022-08-05T00:53:03;25.50;91.10
25200;DHT22;33094;48.782;9.162;2022-08-05T00:55:28;25.50;91.00
25200;DHT22;33094;48.782;9.162;2022-08-05T00:57:54;26.20;91.30
25200;DHT22;33094;48.782;9.162;2022-08-05T01:00:20;25.30;91.10
25200;DHT22;33094;48.782;9.162;2022-08-05T01:02:45;25.40;91.20
25200;DHT22;33094;48.782;9.162;2022-08-05T01:05:11;25.80;88.90
25200;DHT22;33094;48.782;9.162;2022-08-05T01:07:37;26.20;86.30
25200;DHT22;33094;48.782;9.162;2022-08-05T01:10:02;26.20;85.60
25200;DHT22;33094;48.782;9.162;2022-08-05T01:12:30;26.50;83.00
25200;DHT22;33094;48.782;9.162;2022-08-05T01:14:58;26.60;82.40
25200;DHT22;33094;48.782;9.162;2022-08-05T01:17:26;28.20;84.70
25200;DHT22;33094;48.782;9.162;2022-08-05T01:22:30;26.20;84.70
25200;DHT22;33094;48.782;9.162;2022-08-05T01:30:09;25.90;87.00
25200;DHT22;33094;48.782;9.162;2022-08-05T01:32:35;25.90;87.20
25200;DHT22;33094;48.782;9.162;2022-08-05T01:35:07;25.80;87.90
25200;DHT22;33094;48.782;9.162;2022-08-05T01:40:08;25.70;89.00
25200;DHT22;33094;48.782;9.162;2022-08-05T01:42:35;25.60;89.60
25200;DHT22;33094;48.782;9.162;2022-08-05T01:45:02;25.50;89.90
25200;DHT22;33094;48.782;9.162;2022-08-05T01:47:28;25.50;90.10
25200;DHT22;33094;48.782;9.162;2022-08-05T01:49:55;25.40;90.20
25200;DHT22;33094;48.782;9.162;2022-08-05T01:52:21;25.40;90.40
25200;DHT22;33094;48.782;9.162;2022-08-05T01:54:48;25.40;90.60
25200;DHT22;33094;48.782;9.162;2022-08-05T01:57:17;25.40;90.50
25200;DHT22;33094;48.782;9.162;2022-08-05T01:59:45;25.20;90.60
25200;DHT22;33094;48.782;9.162;2022-08-05T02:02:11;25.50;90.80
25200;DHT22;33094;48.782;9.162;2022-08-05T02:04:37;25.30;91.00
25200;DHT22;33094;48.782;9.162;2022-08-05T02:07:04;25.30;91.00
25200;DHT22;33094;48.782;9.162;2022-08-05T02:09:30;25.20;91.00
25200;DHT22;33094;48.782;9.162;2022-08-05T02:12:05;25.20;91.10
25200;DHT22;33094;48.782;9.162;2022-08-05T02:14:33;25.20;91.30
25200;DHT22;33094;48.782;9.162;2022-08-05T02:17:10;25.10;91.30
25200;DHT22;33094;48.782;9.162;2022-08-05T02:19:36;25.10;91.40
25200;DHT22;33094;48.782;9.162;2022-08-05T02:22:08;25.90;91.70
25200;DHT22;33094;48.782;9.162;2022-08-05T02:24:37;25.10;91.60
25200;DHT22;33094;48.782;9.162;2022-08-05T02:27:05;25.10;91.60
25200;DHT22;33094;48.782;9.162;2022-08-05T02:29:33;25.00;91.60
25200;DHT22;33094;48.782;9.162;2022-08-05T02:31:59;25.00;91.80
25200;DHT22;33094;48.782;9.162;2022-08-05T02:34:26;25.10;91.80
25200;DHT22;33094;48.782;9.162;2022-08-05T02:36:53;24.90;91.80
25200;DHT22;33094;48.782;9.162;2022-08-05T02:39:21;25.00;91.80
25200;DHT22;33094;48.782;9.162;2022-08-05T02:41:47;25.00;91.90
25200;DHT22;33094;48.782;9.162;2022-08-05T02:44:13;25.00;91.90
25200;DHT22;33094;48.782;9.162;2022-08-05T02:46:39;24.90;92.20
25200;DHT22;33094;48.782;9.162;2022-08-05T02:49:06;24.90;92.10
25200;DHT22;33094;48.782;9.162;2022-08-05T02:51:32;24.90;92.10
25200;DHT22;33094;48.782;9.162;2022-08-05T02:53:58;24.80;92.20
25200;DHT22;33094;48.782;9.162;2022-08-05T02:56:24;24.80;92.30
25200;DHT22;33094;48.782;9.162;2022-08-05T02:58:51;24.80;92.30
25200;DHT22;33094;48.782;9.162;2022-08-05T03:01:18;24.80;92.30
25200;DHT22;33094;48.782;9.162;2022-08-05T03:03:44;24.80;92.40
25200;DHT22;33094;48.782;9.162;2022-08-05T03:06:12;24.80;92.50
25200;DHT22;33094;48.782;9.162;2022-08-05T03:08:38;24.80;92.50
25200;DHT22;33094;48.782;9.162;2022-08-05T03:11:15;24.70;92.60
25200;DHT22;33094;48.782;9.162;2022-08-05T03:13:40;24.80;92.60
25200;DHT22;33094;48.782;9.162;2022-08-05T03:16:06;24.80;92.60
25200;DHT22;33094;48.782;9.162;2022-08-05T03:18:31;24.80;92.60
25200;DHT22;33094;48.782;9.162;2022-08-05T03:20:57;24.70;92.70
25200;DHT22;33094;48.782;9.162;2022-08-05T03:23:22;26.00;93.10
25200;DHT22;33094;48.782;9.162;2022-08-05T03:25:48;24.60;92.70
25200;DHT22;33094;48.782;9.162;2022-08-05T03:28:13;24.80;92.80
25200;DHT22;33094;48.782;9.162;2022-08-05T03:30:40;24.60;92.80
25200;DHT22;33094;48.782;9.162;2022-08-05T03:33:05;24.60;92.90
25200;DHT22;33094;48.782;9.162;2022-08-05T03:35:31;24.60;92.90
25200;DHT22;33094;48.782;9.162;2022-08-05T03:37:59;24.50;93.10
25200;DHT22;33094;48.782;9.162;2022-08-05T03:40:25;24.50;93.10
25200;DHT22;33094;48.782;9.162;2022-08-05T03:42:51;24.40;93.30
25200;DHT22;33094;48.782;9.162;2022-08-05T03:45:16;24.50;93.30
25200;DHT22;33094;48.782;9.162;2022-08-05T03:47:42;24.40;93.30
25200;DHT22;33094;48.782;9.162;2022-08-05T03:50:07;24.40;93.30
25200;DHT22;33094;48.782;9.162;2022-08-05T03:52:34;24.40;93.40
25200;DHT22;33094;48.782;9.162;2022-08-05T03:55:06;25.10;93.70
25200;DHT22;33094;48.782;9.162;2022-08-05T03:57:35;24.40;93.40
25200;DHT22;33094;48.782;9.162;2022-08-05T04:00:03;24.40;93.40
25200;DHT22;33094;48.782;9.162;2022-08-05T04:02:30;24.40;93.50
25200;DHT22;33094;48.782;9.162;2022-08-05T04:04:57;24.40;93.50
25200;DHT22;33094;48.782;9.162;2022-08-05T04:07:23;24.30;93.60
25200;DHT22;33094;48.782;9.162;2022-08-05T04:09:49;24.30;93.70
25200;DHT22;33094;48.782;9.162;2022-08-05T04:12:14;24.30;93.70
25200;DHT22;33094;48.782;9.162;2022-08-05T04:14:40;24.30;93.70
25200;DHT22;33094;48.782;9.162;2022-08-05T04:17:07;24.20;93.80
25200;DHT22;33094;48.782;9.162;2022-08-05T04:19:40;24.20;93.90
25200;DHT22;33094;48.782;9.162;2022-08-05T04:22:09;24.20;94.10
25200;DHT22;33094;48.782;9.162;2022-08-05T04:24:36;24.20;94.10
25200;DHT22;33094;48.782;9.162;2022-08-05T04:27:01;23.90;94.40
25200;DHT22;33094;48.782;9.162;2022-08-05T05:07:38;23.20;94.60
25200;DHT22;33094;48.782;9.162;2022-08-05T05:10:04;24.20;94.40
25200;DHT22;33094;48.782;9.162;2022-08-05T05:12:30;24.30;94.30
25200;DHT22;33094;48.782;9.162;2022-08-05T05:14:56;24.20;94.40
25200;DHT22;33094;48.782;9.162;2022-08-05T05:17:22;24.20;94.60
25200;DHT22;33094;48.782;9.162;2022-08-05T05:19:47;24.20;94.50
25200;DHT22;33094;48.782;9.162;2022-08-05T05:22:13;24.20;94.60
25200;DHT22;33094;48.782;9.162;2022-08-05T05:24:38;24.30;94.60
25200;DHT22;33094;48.782;9.162;2022-08-05T05:27:04;24.40;94.50
25200;DHT22;33094;48.782;9.162;2022-08-05T05:29:29;24.50;94.40
25200;DHT22;33094;48.782;9.162;2022-08-05T05:31:55;24.50;94.40
25200;DHT22;33094;48.782;9.162;2022-08-05T05:34:21;24.50;94.40
25200;DHT22;33094;48.782;9.162;2022-08-05T05:36:47;24.40;94.50
25200;DHT22;33094;48.782;9.162;2022-08-05T05:39:12;24.50;94.60
25200;DHT22;33094;48.782;9.162;2022-08-05T05:41:38;24.50;94.50
25200;DHT22;33094;48.782;9.162;2022-08-05T05:44:04;24.50;94.50
25200;DHT22;33094;48.782;9.162;2022-08-05T05:46:30;24.60;94.60
25200;DHT22;33094;48.782;9.162;2022-08-05T05:48:55;24.70;94.40
25200;DHT22;33094;48.782;9.162;2022-08-05T05:51:22;24.80;94.40
25200;DHT22;33094;48.782;9.162;2022-08-05T05:53:48;25.30;94.30
25200;DHT22;33094;48.782;9.162;2022-08-05T05:56:13;26.90;93.00
25200;DHT22;33094;48.782;9.162;2022-08-05T05:58:39;27.30;92.40
25200;DHT22;33094;48.782;9.162;2022-08-05T06:01:05;26.10;92.90
25200;DHT22;33094;48.782;9.162;2022-08-05T06:03:30;25.50;93.70
25200;DHT22;33094;48.782;9.162;2022-08-05T06:05:56;25.10;94.00
25200;DHT22;33094;48.782;9.162;2022-08-05T06:08:21;25.10;93.80
25200;DHT22;33094;48.782;9.162;2022-08-05T06:10:47;25.20;93.70
25200;DHT22;33094;48.782;9.162;2022-08-05T06:13:12;25.30;93.90
25200;DHT22;33094;48.782;9.162;2022-08-05T06:15:38;25.30;93.70
25200;DHT22;33094;48.782;9.162;2022-08-05T06:18:03;25.10;93.90
25200;DHT22;33094;48.782;9.162;2022-08-05T06:20:29;24.90;94.00
25200;DHT22;33094;48.782;9.162;2022-08-05T06:22:54;24.80;94.10
25200;DHT22;33094;48.782;9.162;2022-08-05T06:25:20;24.90;94.10
25200;DHT22;33094;48.782;9.162;2022-08-05T06:27:45;24.90;93.60
25200;DHT22;33094;48.782;9.162;2022-08-05T06:30:13;24.80;93.80
25200;DHT22;33094;48.782;9.162;2022-08-05T06:32:41;25.10;93.50
25200;DHT22;33094;48.782;9.162;2022-08-05T06:35:06;25.30;93.40
25200;DHT22;33094;48.782;9.162;2022-08-05T06:37:32;25.40;93.30
25200;DHT22;33094;48.782;9.162;2022-08-05T06:42:25;25.30;93.50
25200;DHT22;33094;48.782;9.162;2022-08-05T06:44:51;25.20;93.50
25200;DHT22;33094;48.782;9.162;2022-08-05T06:47:16;25.30;93.70
25200;DHT22;33094;48.782;9.162;2022-08-05T06:49:42;25.30;93.40
25200;DHT22;33094;48.782;9.162;2022-08-05T06:52:07;25.50;93.20
25200;DHT22;33094;48.782;9.162;2022-08-05T06:54:33;25.70;93.10
25200;DHT22;33094;48.782;9.162;2022-08-05T06:56:59;25.70;93.00
25200;DHT22;33094;48.782;9.162;2022-08-05T06:59:24;25.50;93.10
25200;DHT22;33094;48.782;9.162;2022-08-05T07:01:50;25.50;92.90
25200;DHT22;33094;48.782;9.162;2022-08-05T07:04:15;25.70;92.80
25200;DHT22;33094;48.782;9.162;2022-08-05T07:06:41;25.60;92.90
25200;DHT22;33094;48.782;9.162;2022-08-05T07:09:06;25.70;92.90
25200;DHT22;33094;48.782;9.162;2022-08-05T07:11:32;25.50;93.00
25200;DHT22;33094;48.782;9.162;2022-08-05T07:13:58;25.40;92.90
25200;DHT22;33094;48.782;9.162;2022-08-05T07:16:45;25.30;93.10
25200;DHT22;33094;48.782;9.162;2022-08-05T07:19:14;25.40;93.00
25200;DHT22;33094;48.782;9.162;2022-08-05T07:21:41;25.60;92.90
25200;DHT22;33094;48.782;9.162;2022-08-05T07:24:07;25.50;92.90
25200;DHT22;33094;48.782;9.162;2022-08-05T07:26:32;25.70;92.90
25200;DHT22;33094;48.782;9.162;2022-08-05T07:28:58;26.10;92.30
25200;DHT22;33094;48.782;9.162;2022-08-05T07:31:23;26.20;92.20
25200;DHT22;33094;48.782;9.162;2022-08-05T07:33:49;26.00;92.20
25200;DHT22;33094;48.782;9.162;2022-08-05T07:36:14;25.90;92.50
25200;DHT22;33094;48.782;9.162;2022-08-05T07:38:40;26.10;92.00
25200;DHT22;33094;48.782;9.162;2022-08-05T07:41:06;26.20;91.70
25200;DHT22;33094;48.782;9.162;2022-08-05T07:43:32;26.20;91.90
25200;DHT22;33094;48.782;9.162;2022-08-05T07:45:58;26.20;91.60
25200;DHT22;33094;48.782;9.162;2022-08-05T07:48:24;26.00;91.70
25200;DHT22;33094;48.782;9.162;2022-08-05T07:50:49;26.20;91.70
25200;DHT22;33094;48.782;9.162;2022-08-05T07:53:14;26.30;91.50
25200;DHT22;33094;48.782;9.162;2022-08-05T07:55:40;26.40;91.00
25200;DHT22;33094;48.782;9.162;2022-08-05T07:58:05;26.60;91.10
25200;DHT22;33094;48.782;9.162;2022-08-05T08:00:31;26.70;91.00
25200;DHT22;33094;48.782;9.162;2022-08-05T08:02:57;26.90;90.70
25200;DHT22;33094;48.782;9.162;2022-08-05T08:05:22;26.70;89.60
25200;DHT22;33094;48.782;9.162;2022-08-05T08:07:48;26.80;89.80
25200;DHT22;33094;48.782;9.162;2022-08-05T08:10:13;26.90;90.00
25200;DHT22;33094;48.782;9.162;2022-08-05T08:12:39;27.30;87.70
25200;DHT22;33094;48.782;9.162;2022-08-05T08:15:05;27.60;86.90
25200;DHT22;33094;48.782;9.162;2022-08-05T08:17:31;27.60;86.70
25200;DHT22;33094;48.782;9.162;2022-08-05T08:19:57;27.60;86.40
25200;DHT22;33094;48.782;9.162;2022-08-05T08:22:25;27.80;86.10
25200;DHT22;33094;48.782;9.162;2022-08-05T08:24:51;28.10;83.80
25200;DHT22;33094;48.782;9.162;2022-08-05T08:27:17;28.20;83.10
25200;DHT22;33094;48.782;9.162;2022-08-05T08:29:42;27.90;83.30
25200;DHT22;33094;48.782;9.162;2022-08-05T08:32:08;27.70;84.00
25200;DHT22;33094;48.782;9.162;2022-08-05T08:34:34;28.40;83.00
25200;DHT22;33094;48.782;9.162;2022-08-05T08:36:59;29.30;82.30
25200;DHT22;33094;48.782;9.162;2022-08-05T08:39:25;29.90;81.20
25200;DHT22;33094;48.782;9.162;2022-08-05T08:41:51;30.10;81.70
25200;DHT22;33094;48.782;9.162;2022-08-05T08:44:19;29.30;81.20
25200;DHT22;33094;48.782;9.162;2022-08-05T08:46:46;30.30;80.90
25200;DHT22;33094;48.782;9.162;2022-08-05T08:49:12;30.20;80.90
25200;DHT22;33094;48.782;9.162;2022-08-05T08:51:39;30.10;80.60
25200;DHT22;33094;48.782;9.162;2022-08-05T08:54:05;31.00;79.60
25200;DHT22;33094;48.782;9.162;2022-08-05T08:56:31;31.40;78.80
25200;DHT22;33094;48.782;9.162;2022-08-05T08:58:56;30.60;78.30
25200;DHT22;33094;48.782;9.162;2022-08-05T09:01:23;31.00;78.50
25200;DHT22;33094;48.782;9.162;2022-08-05T09:03:50;31.90;76.60
25200;DHT22;33094;48.782;9.162;2022-08-05T09:06:15;31.30;78.30
25200;DHT22;33094;48.782;9.162;2022-08-05T09:08:41;31.90;76.60
25200;DHT22;33094;48.782;9.162;2022-08-05T09:11:07;31.20;76.50
25200;DHT22;33094;48.782;9.162;2022-08-05T09:13:33;31.40;76.00
25200;DHT22;33094;48.782;9.162;2022-08-05T09:15:59;31.40;75.80
25200;DHT22;33094;48.782;9.162;2022-08-05T09:18:25;31.80;75.10
25200;DHT22;33094;48.782;9.162;2022-08-05T09:20:51;32.10;74.10
25200;DHT22;33094;48.782;9.162;2022-08-05T09:23:17;32.50;73.70
25200;DHT22;33094;48.782;9.162;2022-08-05T09:25:45;32.70;72.50
25200;DHT22;33094;48.782;9.162;2022-08-05T09:28:17;33.00;72.90
25200;DHT22;33094;48.782;9.162;2022-08-05T09:33:29;32.80;72.60
25200;DHT22;33094;48.782;9.162;2022-08-05T09:36:02;34.00;71.10
25200;DHT22;33094;48.782;9.162;2022-08-05T09:38:28;33.80;71.10
25200;DHT22;33094;48.782;9.162;2022-08-05T09:40:54;32.80;71.60
25200;DHT22;33094;48.782;9.162;2022-08-05T09:43:30;32.70;72.70
25200;DHT22;33094;48.782;9.162;2022-08-05T09:45:56;32.90;72.10
25200;DHT22;33094;48.782;9.162;2022-08-05T09:48:22;34.00;70.30
25200;DHT22;33094;48.782;9.162;2022-08-05T09:50:52;34.30;69.70
25200;DHT22;33094;48.782;9.162;2022-08-05T09:53:18;31.70;72.50
25200;DHT22;33094;48.782;9.162;2022-08-05T09:55:44;30.70;74.60
25200;DHT22;33094;48.782;9.162;2022-08-05T09:58:14;33.30;72.60
25200;DHT22;33094;48.782;9.162;2022-08-05T10:00:51;34.30;69.90
25200;DHT22;33094;48.782;9.162;2022-08-05T10:03:16;33.70;70.10
25200;DHT22;33094;48.782;9.162;2022-08-05T10:05:42;33.70;71.40
25200;DHT22;33094;48.782;9.162;2022-08-05T10:08:08;33.40;70.20
25200;DHT22;33094;48.782;9.162;2022-08-05T10:10:38;32.00;73.50
25200;DHT22;33094;48.782;9.162;2022-08-05T10:13:10;34.30;70.20
25200;DHT22;33094;48.782;9.162;2022-08-05T10:15:37;34.50;69.50
25200;DHT22;33094;48.782;9.162;2022-08-05T10:18:12;34.80;67.90
25200;DHT22;33094;48.782;9.162;2022-08-05T10:23:04;34.50;68.30
25200;DHT22;33094;48.782;9.162;2022-08-05T10:25:30;35.30;67.40
25200;DHT22;33094;48.782;9.162;2022-08-05T10:27:56;35.40;66.40
25200;DHT22;33094;48.782;9.162;2022-08-05T10:30:22;34.90;66.40
25200;DHT22;33094;48.782;9.162;2022-08-05T10:32:47;35.10;66.70
25200;DHT22;33094;48.782;9.162;2022-08-05T10:35:13;34.80;66.80
25200;DHT22;33094;48.782;9.162;2022-08-05T10:37:39;35.50;65.70
25200;DHT22;33094;48.782;9.162;2022-08-05T10:40:06;35.90;65.30
25200;DHT22;33094;48.782;9.162;2022-08-05T10:42:34;35.80;64.30
25200;DHT22;33094;48.782;9.162;2022-08-05T10:45:05;35.80;63.90
25200;DHT22;33094;48.782;9.162;2022-08-05T10:47:32;35.60;64.30
25200;DHT22;33094;48.782;9.162;2022-08-05T10:50:04;35.50;64.80
25200;DHT22;33094;48.782;9.162;2022-08-05T10:52:44;34.70;65.80
25200;DHT22;33094;48.782;9.162;2022-08-05T10:55:16;34.90;65.50
25200;DHT22;33094;48.782;9.162;2022-08-05T10:57:43;34.50;66.40
25200;DHT22;33094;48.782;9.162;2022-08-05T11:02:36;35.70;64.90
25200;DHT22;33094;48.782;9.162;2022-08-05T11:05:03;36.10;63.80
25200;DHT22;33094;48.782;9.162;2022-08-05T11:07:29;35.50;65.50
25200;DHT22;33094;48.782;9.162;2022-08-05T11:09:55;36.30;62.90
25200;DHT22;33094;48.782;9.162;2022-08-05T11:17:32;35.60;64.40
25200;DHT22;33094;48.782;9.162;2022-08-05T11:19:59;36.10;63.20
25200;DHT22;33094;48.782;9.162;2022-08-05T11:22:38;36.10;65.20
25200;DHT22;33094;48.782;9.162;2022-08-05T11:27:48;36.60;62.60
25200;DHT22;33094;48.782;9.162;2022-08-05T11:30:14;37.50;61.20
25200;DHT22;33094;48.782;9.162;2022-08-05T11:32:39;36.50;62.20
25200;DHT22;33094;48.782;9.162;2022-08-05T11:35:05;36.50;61.90
25200;DHT22;33094;48.782;9.162;2022-08-05T11:40:15;35.60;63.50
25200;DHT22;33094;48.782;9.162;2022-08-05T11:42:40;32.90;67.40
25200;DHT22;33094;48.782;9.162;2022-08-05T11:45:10;34.50;65.80
25200;DHT22;33094;48.782;9.162;2022-08-05T11:47:35;36.20;62.80
25200;DHT22;33094;48.782;9.162;2022-08-05T11:50:02;36.30;62.90
25200;DHT22;33094;48.782;9.162;2022-08-05T11:52:28;37.20;60.40
25200;DHT22;33094;48.782;9.162;2022-08-05T11:54:53;35.60;63.00
25200;DHT22;33094;48.782;9.162;2022-08-05T11:57:19;34.00;65.60
25200;DHT22;33094;48.782;9.162;2022-08-05T11:59:45;33.10;67.50
25200;DHT22;33094;48.782;9.162;2022-08-05T12:02:10;32.40;68.40
25200;DHT22;33094;48.782;9.162;2022-08-05T12:04:54;32.40;69.20
25200;DHT22;33094;48.782;9.162;2022-08-05T12:07:19;34.40;66.10
25200;DHT22;33094;48.782;9.162;2022-08-05T12:09:51;34.50;65.40
25200;DHT22;33094;48.782;9.162;2022-08-05T12:12:24;33.30;67.20
25200;DHT22;33094;48.782;9.162;2022-08-05T12:14:51;33.10;68.00
25200;DHT22;33094;48.782;9.162;2022-08-05T12:17:17;35.10;65.00
25200;DHT22;33094;48.782;9.162;2022-08-05T12:19:47;33.40;67.90
25200;DHT22;33094;48.782;9.162;2022-08-05T12:22:13;32.70;70.00
25200;DHT22;33094;48.782;9.162;2022-08-05T12:24:40;32.30;69.90
25200;DHT22;33094;48.782;9.162;2022-08-05T12:27:06;31.90;71.00
25200;DHT22;33094;48.782;9.162;2022-08-05T12:29:31;32.00;70.70
25200;DHT22;33094;48.782;9.162;2022-08-05T12:31:58;31.80;71.10
25200;DHT22;33094;48.782;9.162;2022-08-05T12:34:30;31.80;71.50
25200;DHT22;33094;48.782;9.162;2022-08-05T12:36:57;32.10;70.90
25200;DHT22;33094;48.782;9.162;2022-08-05T12:39:24;31.50;71.70
25200;DHT22;33094;48.782;9.162;2022-08-05T12:41:50;31.50;72.40
25200;DHT22;33094;48.782;9.162;2022-08-05T12:44:21;31.30;72.50
25200;DHT22;33094;48.782;9.162;2022-08-05T12:46:50;31.50;72.60
25200;DHT22;33094;48.782;9.162;2022-08-05T12:49:16;31.50;73.10
25200;DHT22;33094;48.782;9.162;2022-08-05T12:51:49;31.30;73.00
25200;DHT22;33094;48.782;9.162;2022-08-05T12:54:33;31.20;73.30
25200;DHT22;33094;48.782;9.162;2022-08-05T12:57:00;31.40;73.10
25200;DHT22;33094;48.782;9.162;2022-08-05T12:59:30;31.40;73.30
25200;DHT22;33094;48.782;9.162;2022-08-05T13:01:57;31.40;73.80
25200;DHT22;33094;48.782;9.162;2022-08-05T13:04:30;31.40;73.20
25200;DHT22;33094;48.782;9.162;2022-08-05T13:06:57;31.50;73.30
25200;DHT22;33094;48.782;9.162;2022-08-05T13:09:23;32.10;72.80
25200;DHT22;33094;48.782;9.162;2022-08-05T13:11:49;32.00;71.60
25200;DHT22;33094;48.782;9.162;2022-08-05T13:19:33;34.50;67.90
25200;DHT22;33094;48.782;9.162;2022-08-05T13:21:58;33.80;69.50
25200;DHT22;33094;48.782;9.162;2022-08-05T13:24:24;33.00;70.90
25200;DHT22;33094;48.782;9.162;2022-08-05T13:26:50;32.90;70.60
25200;DHT22;33094;48.782;9.162;2022-08-05T13:29:15;32.50;71.20
25200;DHT22;33094;48.782;9.162;2022-08-05T13:31:41;32.30;72.10
25200;DHT22;33094;48.782;9.162;2022-08-05T13:34:07;32.30;72.10
25200;DHT22;33094;48.782;9.162;2022-08-05T13:36:33;32.10;71.90
25200;DHT22;33094;48.782;9.162;2022-08-05T13:38:59;31.80;71.90
25200;DHT22;33094;48.782;9.162;2022-08-05T13:41:25;31.80;73.20
25200;DHT22;33094;48.782;9.162;2022-08-05T13:43:50;32.20;71.70
25200;DHT22;33094;48.782;9.162;2022-08-05T13:46:16;32.70;71.00
25200;DHT22;33094;48.782;9.162;2022-08-05T13:48:41;32.60;71.20
25200;DHT22;33094;48.782;9.162;2022-08-05T13:51:07;32.10;71.50
25200;DHT22;33094;48.782;9.162;2022-08-05T13:53:33;31.80;71.60
25200;DHT22;33094;48.782;9.162;2022-08-05T13:56:00;32.00;72.30
25200;DHT22;33094;48.782;9.162;2022-08-05T13:58:25;32.10;70.90
25200;DHT22;33094;48.782;9.162;2022-08-05T14:00:51;32.00;70.60
25200;DHT22;33094;48.782;9.162;2022-08-05T14:03:16;32.10;70.70
25200;DHT22;33094;48.782;9.162;2022-08-05T14:05:42;31.90;71.50
25200;DHT22;33094;48.782;9.162;2022-08-05T14:08:07;31.80;71.90
25200;DHT22;33094;48.782;9.162;2022-08-05T14:10:33;31.60;72.00
25200;DHT22;33094;48.782;9.162;2022-08-05T14:12:59;31.80;71.90
25200;DHT22;33094;48.782;9.162;2022-08-05T14:15:25;32.30;71.10
25200;DHT22;33094;48.782;9.162;2022-08-05T14:17:51;32.30;71.20
25200;DHT22;33094;48.782;9.162;2022-08-05T14:20:17;31.90;71.20
25200;DHT22;33094;48.782;9.162;2022-08-05T14:22:42;31.50;71.50
25200;DHT22;33094;48.782;9.162;2022-08-05T14:25:08;31.10;73.40
25200;DHT22;33094;48.782;9.162;2022-08-05T14:27:34;31.20;73.10
25200;DHT22;33094;48.782;9.162;2022-08-05T14:30:00;31.30;73.00
25200;DHT22;33094;48.782;9.162;2022-08-05T14:32:26;31.20;73.00
25200;DHT22;33094;48.782;9.162;2022-08-05T14:34:52;31.00;72.70
25200;DHT22;33094;48.782;9.162;2022-08-05T14:37:17;30.90;73.70
25200;DHT22;33094;48.782;9.162;2022-08-05T14:39:43;30.80;74.20
25200;DHT22;33094;48.782;9.162;2022-08-05T14:42:09;30.80;74.20
25200;DHT22;33094;48.782;9.162;2022-08-05T14:44:34;30.70;74.30
25200;DHT22;33094;48.782;9.162;2022-08-05T14:47:00;30.60;74.90
25200;DHT22;33094;48.782;9.162;2022-08-05T14:49:26;30.50;75.30
25200;DHT22;33094;48.782;9.162;2022-08-05T14:51:51;30.40;75.60
25200;DHT22;33094;48.782;9.162;2022-08-05T14:54:17;30.30;75.50
25200;DHT22;33094;48.782;9.162;2022-08-05T14:56:44;30.30;75.80
25200;DHT22;33094;48.782;9.162;2022-08-05T14:59:09;30.00;76.70
25200;DHT22;33094;48.782;9.162;2022-08-05T15:01:35;29.90;77.40
25200;DHT22;33094;48.782;9.162;2022-08-05T15:04:01;29.60;77.20
25200;DHT22;33094;48.782;9.162;2022-08-05T15:06:27;29.90;78.00
25200;DHT22;33094;48.782;9.162;2022-08-05T15:08:53;29.70;78.70
25200;DHT22;33094;48.782;9.162;2022-08-05T15:11:21;29.70;79.40
25200;DHT22;33094;48.782;9.162;2022-08-05T15:13:46;29.70;80.40
25200;DHT22;33094;48.782;9.162;2022-08-05T15:16:12;29.50;81.90
25200;DHT22;33094;48.782;9.162;2022-08-05T15:18:38;29.50;82.10
25200;DHT22;33094;48.782;9.162;2022-08-05T15:21:03;29.40;87.70
25200;DHT22;33094;48.782;9.162;2022-08-05T15:23:29;26.50;95.70
25200;DHT22;33094;48.782;9.162;2022-08-05T15:25:55;26.10;99.40
25200;DHT22;33094;48.782;9.162;2022-08-05T15:28:20;26.10;99.90
25200;DHT22;33094;48.782;9.162;2022-08-05T15:30:46;25.90;99.80
25200;DHT22;33094;48.782;9.162;2022-08-05T15:33:12;25.80;99.90
25200;DHT22;33094;48.782;9.162;2022-08-05T15:35:38;25.80;99.90
25200;DHT22;33094;48.782;9.162;2022-08-05T15:38:03;26.10;99.90
25200;DHT22;33094;48.782;9.162;2022-08-05T15:40:29;26.40;99.60
25200;DHT22;33094;48.782;9.162;2022-08-05T15:42:55;26.70;98.50
25200;DHT22;33094;48.782;9.162;2022-08-05T15:45:21;26.80;98.70
25200;DHT22;33094;48.782;9.162;2022-08-05T15:47:46;27.10;96.70
25200;DHT22;33094;48.782;9.162;2022-08-05T15:50:12;27.00;96.80
25200;DHT22;33094;48.782;9.162;2022-08-05T15:52:38;26.80;98.20
25200;DHT22;33094;48.782;9.162;2022-08-05T15:55:05;27.00;98.00
25200;DHT22;33094;48.782;9.162;2022-08-05T15:57:31;27.10;97.60
25200;DHT22;33094;48.782;9.162;2022-08-05T15:59:56;27.40;97.20
25200;DHT22;33094;48.782;9.162;2022-08-05T16:02:22;27.70;96.80
25200;DHT22;33094;48.782;9.162;2022-08-05T16:04:48;27.50;96.30
25200;DHT22;33094;48.782;9.162;2022-08-05T16:07:13;27.40;96.00
25200;DHT22;33094;48.782;9.162;2022-08-05T16:09:39;27.40;95.10
25200;DHT22;33094;48.782;9.162;2022-08-05T16:12:06;27.40;94.80
25200;DHT22;33094;48.782;9.162;2022-08-05T16:14:31;27.40;94.10
25200;DHT22;33094;48.782;9.162;2022-08-05T16:16:57;27.20;95.90
25200;DHT22;33094;48.782;9.162;2022-08-05T16:19:23;27.20;94.50
25200;DHT22;33094;48.782;9.162;2022-08-05T16:21:48;27.30;93.70
25200;DHT22;33094;48.782;9.162;2022-08-05T16:24:14;27.40;94.20
25200;DHT22;33094;48.782;9.162;2022-08-05T16:29:15;27.30;94.10
25200;DHT22;33094;48.782;9.162;2022-08-05T16:31:40;27.30;94.10
25200;DHT22;33094;48.782;9.162;2022-08-05T16:34:06;27.30;94.40
25200;DHT22;33094;48.782;9.162;2022-08-05T16:36:31;27.20;94.20
25200;DHT22;33094;48.782;9.162;2022-08-05T16:38:57;27.10;94.00
25200;DHT22;33094;48.782;9.162;2022-08-05T16:41:22;27.00;93.50
25200;DHT22;33094;48.782;9.162;2022-08-05T16:43:48;27.10;92.80
25200;DHT22;33094;48.782;9.162;2022-08-05T16:46:14;27.10;92.50
25200;DHT22;33094;48.782;9.162;2022-08-05T16:48:39;27.10;92.40
25200;DHT22;33094;48.782;9.162;2022-08-05T16:51:05;27.10;92.70
25200;DHT22;33094;48.782;9.162;2022-08-05T16:53:31;27.00;92.90
25200;DHT22;33094;48.782;9.162;2022-08-05T16:55:57;27.00;92.70
25200;DHT22;33094;48.782;9.162;2022-08-05T16:58:22;27.00;92.60
25200;DHT22;33094;48.782;9.162;2022-08-05T17:00:48;26.90;92.80
25200;DHT22;33094;48.782;9.162;2022-08-05T17:03:13;26.80;92.80
25200;DHT22;33094;48.782;9.162;2022-08-05T17:05:39;26.80;92.90
25200;DHT22;33094;48.782;9.162;2022-08-05T17:08:05;26.80;92.60
25200;DHT22;33094;48.782;9.162;2022-08-05T17:10:30;26.80;92.80
25200;DHT22;33094;48.782;9.162;2022-08-05T17:12:56;26.70;92.90
25200;DHT22;33094;48.782;9.162;2022-08-05T17:15:21;26.60;92.70
25200;DHT22;33094;48.782;9.162;2022-08-05T17:17:47;26.60;93.00
25200;DHT22;33094;48.782;9.162;2022-08-05T17:20:12;26.70;93.20
25200;DHT22;33094;48.782;9.162;2022-08-05T17:22:38;26.60;93.00